Terminal Aerodrome Forecast
Issued by NWS Wilmington, OH

Current Version | Previous Version | Graphics & Text | Print | Product List | Glossary On
Versions: 1 2 3 4 5 6 7 8 9 10 11 12 13 14 15 16 17 18 19 20 21 22 23
679
FTUS41 KILN 032320
TAFDAY
TAF
KDAY 032320Z 0400/0424 29006KT P6SM BKN040 OVC080
     FM040400 22005KT P6SM FEW050 SCT090
     FM041000 22009KT P6SM BKN080
     FM041500 24014G24KT 4SM -SHRA OVC040
     FM041800 24014G24KT 4SM -SHRA BR VCTS SCT015 OVC025CB
     FM042100 32016G26KT P6SM VCSH BKN015 OVC022=

USA.gov is the U.S. government's official web portal to all federal, state and local government web resources and services.